Terminal Aerodrome Forecast
Issued by NWS

Home | Current Version | Previous Version | Text Only | Print | Product List | Glossary On
Versions: 1 2 3 4 5 6 7 8 9 10 11 12 13 14 15
819
FTUS43 KMQT 251140
TAFSAW
TAF
KSAW 251140Z 2512/2612 34015G25KT 3SM -SHSN BLSN SCT007 OVC018
      TEMPO 2512/2515 1SM -SHSN BLSN SCT006 BKN012
     FM251700 33016G26KT 3SM -SHSN BLSN OVC020
     FM252000 31013G23KT P6SM BKN020
     FM252200 30010KT P6SM BKN035
     FM260000 26006KT P6SM SCT050
     FM260800 23006KT P6SM BKN040=

USA.gov is the U.S. government's official web portal to all federal, state and local government web resources and services.